createdAt,value
2024-04-18T00:00:27.047Z,5.32
2024-04-18T00:02:54.973Z,5.28
2024-04-18T00:05:34.509Z,5.29
2024-04-18T00:08:02.420Z,5.34
2024-04-18T00:10:32.801Z,5.31
2024-04-18T00:13:03.199Z,5.26
2024-04-18T00:15:33.592Z,5.27
2024-04-18T00:18:01.518Z,5.27
2024-04-18T00:20:32.195Z,5.36
2024-04-18T00:23:18.648Z,5.40
2024-04-18T00:26:09.006Z,5.43
2024-04-18T00:28:59.338Z,5.45
2024-04-18T00:31:29.751Z,5.46
2024-04-18T00:34:00.945Z,5.45
2024-04-18T00:36:47.967Z,5.51
2024-04-18T00:39:25.137Z,5.57
2024-04-18T00:42:04.779Z,5.60
2024-04-18T00:44:35.308Z,5.55
2024-04-18T00:47:20.898Z,5.60
2024-04-18T00:50:02.810Z,5.61
2024-04-18T00:52:42.740Z,5.62
2024-04-18T00:55:27.678Z,5.64
2024-04-18T00:58:18.373Z,5.63
2024-04-18T01:00:50.874Z,5.63
2024-04-18T01:03:36.265Z,5.65
2024-04-18T01:06:08.483Z,5.61
2024-04-18T01:08:52.155Z,5.65
2024-04-18T01:11:31.301Z,5.62
2024-04-18T01:14:09.415Z,5.61
2024-04-18T01:16:53.693Z,5.63
2024-04-18T01:19:24.292Z,5.59
2024-04-18T01:21:52.861Z,5.50
2024-04-18T01:24:23.370Z,5.49
2024-04-18T01:26:54.003Z,5.40
2024-04-18T01:29:44.513Z,5.32
2024-04-18T01:32:27.162Z,5.32
2024-04-18T01:34:57.766Z,5.33
2024-04-18T01:37:28.816Z,5.32
2024-04-18T01:40:17.007Z,5.35
2024-04-18T01:42:47.822Z,5.32
2024-04-18T01:45:27.766Z,5.32
2024-04-18T01:48:09.658Z,5.30
2024-04-18T01:50:54.048Z,5.24
2024-04-18T01:53:32.920Z,5.27
2024-04-18T01:56:03.325Z,5.24
2024-04-18T01:58:47.995Z,5.28
2024-04-18T02:01:18.476Z,5.21
2024-04-18T02:03:46.481Z,5.19
2024-04-18T02:06:17.160Z,5.21
2024-04-18T02:08:47.896Z,5.22
2024-04-18T02:11:21.248Z,5.23
2024-04-18T02:14:12.061Z,5.19
2024-04-18T02:16:42.438Z,5.19
2024-04-18T02:19:24.228Z,5.19
2024-04-18T02:22:08.538Z,5.21
2024-04-18T02:24:38.413Z,5.22
2024-04-18T02:27:08.964Z,5.19
2024-04-18T02:29:39.401Z,5.13
2024-04-18T02:32:09.933Z,5.11
2024-04-18T02:34:37.766Z,5.02
2024-04-18T02:37:31.498Z,4.94
2024-04-18T02:39:59.513Z,4.93
2024-04-18T02:42:30.322Z,4.93
2024-04-18T02:45:01.903Z,4.89
2024-04-18T02:47:53.453Z,4.87
2024-04-18T02:50:34.198Z,4.86
2024-04-18T02:53:04.791Z,4.84
2024-04-18T02:55:32.594Z,4.79
2024-04-18T02:58:03.010Z,4.82
2024-04-18T03:00:39.214Z,4.79
2024-04-18T03:03:09.772Z,4.78
2024-04-18T03:06:05.718Z,4.79
2024-04-18T03:08:33.611Z,4.76
2024-04-18T03:11:22.241Z,4.70
2024-04-18T03:14:04.146Z,4.71
2024-04-18T03:16:37.208Z,4.74
2024-04-18T03:19:19.116Z,4.72
2024-04-18T03:21:56.113Z,4.72
2024-04-18T03:24:24.899Z,4.70
2024-04-18T03:26:56.239Z,4.71
2024-04-18T03:29:24.395Z,4.65
2024-04-18T03:32:03.444Z,4.68
2024-04-18T03:34:45.439Z,4.73
2024-04-18T03:37:15.790Z,4.72
2024-04-18T03:39:46.320Z,4.71
2024-04-18T03:42:16.966Z,4.66
2024-04-18T03:44:58.607Z,4.71
2024-04-18T03:47:33.605Z,4.71
2024-04-18T03:50:12.724Z,4.79
2024-04-18T03:52:40.840Z,4.75
2024-04-18T03:55:40.467Z,4.69
2024-04-18T03:58:08.827Z,4.75
2024-04-18T04:00:53.377Z,4.74
2024-04-18T04:03:23.987Z,4.67
2024-04-18T04:05:55.690Z,4.63
2024-04-18T04:08:23.546Z,4.65
2024-04-18T04:11:14.147Z,4.67
2024-04-18T04:13:42.093Z,4.68
2024-04-18T04:16:22.454Z,4.64
2024-04-18T04:19:12.952Z,4.64
2024-04-18T04:21:53.143Z,4.69
2024-04-18T04:24:21.067Z,4.77
2024-04-18T04:26:55.088Z,4.79
2024-04-18T04:29:23.439Z,4.93
2024-04-18T04:31:53.780Z,5.02
2024-04-18T04:34:24.213Z,5.07
2024-04-18T04:36:54.644Z,5.14
2024-04-18T04:39:22.544Z,5.21
2024-04-18T04:41:53.003Z,5.24
2024-04-18T04:44:20.821Z,5.28
2024-04-18T04:46:52.831Z,5.40
2024-04-18T04:49:23.975Z,5.47
2024-04-18T04:52:14.744Z,5.54
2024-04-18T04:54:44.172Z,5.56
2024-04-18T04:57:15.474Z,5.54
2024-04-18T04:59:44.596Z,5.64
2024-04-18T05:02:15.344Z,5.74
2024-04-18T05:04:52.193Z,5.90
2024-04-18T05:07:38.710Z,5.96
2024-04-18T05:10:23.033Z,5.86
2024-04-18T05:12:51.772Z,5.96
2024-04-18T05:15:36.541Z,6.05
2024-04-18T05:18:05.443Z,6.15
2024-04-18T05:20:39.063Z,6.06
2024-04-18T05:23:08.570Z,6.28
2024-04-18T05:25:39.583Z,6.31
2024-04-18T05:28:31.634Z,6.26
2024-04-18T05:31:06.547Z,6.24
2024-04-18T05:33:38.035Z,6.33
2024-04-18T05:36:11.817Z,6.58
2024-04-18T05:38:42.250Z,7.02
2024-04-18T05:41:12.941Z,7.48
2024-04-18T05:44:11.775Z,7.99
2024-04-18T05:47:05.149Z,8.14
2024-04-18T05:49:35.552Z,8.25
2024-04-18T05:52:08.485Z,8.38
2024-04-18T05:54:43.836Z,9.33
2024-04-18T05:57:14.134Z,9.92
2024-04-18T05:59:53.392Z,11.08
2024-04-18T06:02:24.531Z,10.92
2024-04-18T06:04:54.874Z,12.06
2024-04-18T06:07:44.910Z,13.46
2024-04-18T06:10:16.601Z,14.35
2024-04-18T06:12:44.330Z,14.60
2024-04-18T06:15:14.572Z,13.94
2024-04-18T06:17:44.769Z,13.68
2024-04-18T06:20:15.013Z,13.70
2024-04-18T06:22:47.973Z,13.36
2024-04-18T06:25:27.707Z,13.29
2024-04-18T06:27:57.971Z,13.02
2024-04-18T06:30:28.408Z,12.47
2024-04-18T06:32:58.701Z,11.99
2024-04-18T06:35:29.013Z,11.71
2024-04-18T06:38:02.267Z,11.36
2024-04-18T06:40:32.464Z,11.08
2024-04-18T06:43:02.806Z,10.87
2024-04-18T06:45:34.224Z,10.43
2024-04-18T06:48:04.731Z,10.25
2024-04-18T06:50:35.376Z,10.18
2024-04-18T06:53:08.640Z,10.12
2024-04-18T06:55:39.560Z,9.94
2024-04-18T06:58:09.836Z,9.92
2024-04-18T07:00:42.488Z,9.85
2024-04-18T07:03:15.213Z,10.00
2024-04-18T07:05:54.695Z,9.94
2024-04-18T07:08:28.328Z,9.82
2024-04-18T07:11:00.577Z,9.70
2024-04-18T07:13:35.219Z,9.61
2024-04-18T07:16:21.974Z,9.64
2024-04-18T07:18:58.893Z,9.83
2024-04-18T07:21:29.273Z,9.64
2024-04-18T07:24:17.080Z,9.53
2024-04-18T07:26:47.386Z,9.68
2024-04-18T07:29:17.643Z,10.03
2024-04-18T07:31:47.935Z,10.33
2024-04-18T07:34:18.504Z,10.61
2024-04-18T07:36:50.276Z,10.81
2024-04-18T07:39:23.350Z,10.98
2024-04-18T07:41:53.591Z,11.44
2024-04-18T07:44:25.099Z,11.67
2024-04-18T07:46:55.667Z,12.44
2024-04-18T07:49:25.918Z,13.23
2024-04-18T07:51:57.564Z,15.31
2024-04-18T07:54:30.636Z,17.33
2024-04-18T07:57:01.780Z,18.45
2024-04-18T07:59:33.276Z,18.86
2024-04-18T08:02:05.170Z,17.83
2024-04-18T08:04:52.705Z,16.51
2024-04-18T08:07:29.203Z,15.08
2024-04-18T08:10:08.418Z,13.78
2024-04-18T08:12:45.510Z,12.79
2024-04-18T08:15:23.465Z,12.18
2024-04-18T08:17:57.972Z,11.78
2024-04-18T08:20:28.423Z,11.49
2024-04-18T08:22:58.642Z,11.57
2024-04-18T08:25:31.467Z,11.58
2024-04-18T08:28:01.707Z,11.75
2024-04-18T08:30:32.063Z,12.01
2024-04-18T08:33:02.443Z,12.95
2024-04-18T08:35:32.757Z,14.31
2024-04-18T08:38:02.971Z,15.57
2024-04-18T08:40:35.815Z,15.26
2024-04-18T08:43:06.269Z,16.43
2024-04-18T08:45:37.920Z,17.74
2024-04-18T08:48:09.658Z,17.94
2024-04-18T08:50:41.953Z,17.68
2024-04-18T08:53:13.771Z,17.09
2024-04-18T08:55:51.182Z,18.29
2024-04-18T08:58:24.429Z,17.30
2024-04-18T09:00:54.698Z,16.32
2024-04-18T09:03:22.467Z,15.56
2024-04-18T09:05:52.733Z,18.67
2024-04-18T09:08:23.009Z,20.83
2024-04-18T09:10:56.186Z,20.44
2024-04-18T09:13:27.219Z,20.10
2024-04-18T09:15:57.578Z,19.69
2024-04-18T09:18:28.463Z,19.51
2024-04-18T09:20:59.016Z,18.95
2024-04-18T09:23:29.414Z,18.59
2024-04-18T09:26:02.240Z,18.05
2024-04-18T09:28:32.553Z,17.49
2024-04-18T09:31:05.888Z,16.91
2024-04-18T09:33:37.283Z,16.58
2024-04-18T09:36:08.629Z,17.16
2024-04-18T09:38:40.676Z,17.62
2024-04-18T09:41:19.160Z,17.79
2024-04-18T09:43:56.770Z,17.86
2024-04-18T09:46:28.106Z,17.69
2024-04-18T09:48:59.196Z,18.70
2024-04-18T09:51:31.528Z,18.34
2024-04-18T09:54:02.400Z,18.03
2024-04-18T09:56:35.761Z,17.57
2024-04-18T09:59:07.491Z,17.30
2024-04-18T10:01:39.797Z,17.51
2024-04-18T10:04:10.129Z,17.33
2024-04-18T10:06:42.985Z,16.80
2024-04-18T10:09:14.060Z,16.68
2024-04-18T10:11:46.924Z,18.73
2024-04-18T10:14:17.713Z,19.26
2024-04-18T10:16:52.048Z,18.59
2024-04-18T10:19:23.942Z,18.41
2024-04-18T10:22:11.673Z,20.76
2024-04-18T10:24:52.952Z,21.12
2024-04-18T10:27:24.070Z,20.40
2024-04-18T10:29:59.062Z,19.86
2024-04-18T10:32:31.868Z,19.46
2024-04-18T10:35:02.556Z,19.80
2024-04-18T10:37:32.769Z,19.73
2024-04-18T10:40:03.085Z,18.95
2024-04-18T10:42:38.490Z,18.07
2024-04-18T10:45:09.203Z,17.10
2024-04-18T10:47:39.937Z,17.22
2024-04-18T10:50:10.912Z,19.05
2024-04-18T10:52:41.642Z,22.27
2024-04-18T10:55:11.871Z,21.27
2024-04-18T10:57:44.712Z,19.44
2024-04-18T11:00:18.714Z,18.10
2024-04-18T11:02:49.084Z,17.65
2024-04-18T11:05:19.387Z,18.89
2024-04-18T11:07:52.178Z,19.03
2024-04-18T11:10:22.712Z,19.96
2024-04-18T11:12:57.240Z,23.13
2024-04-18T11:15:27.669Z,20.73
2024-04-18T11:17:58.123Z,18.05
2024-04-18T11:20:30.513Z,18.32
2024-04-18T11:23:08.730Z,18.94
2024-04-18T11:25:44.065Z,18.58
2024-04-18T11:28:17.012Z,18.51
2024-04-18T11:30:47.541Z,18.68
2024-04-18T11:33:23.149Z,20.25
2024-04-18T11:35:55.074Z,23.30
2024-04-18T11:38:25.741Z,21.39
2024-04-18T11:40:55.925Z,20.08
2024-04-18T11:43:28.692Z,17.95
2024-04-18T11:45:59.075Z,17.04
2024-04-18T11:48:29.559Z,17.82
2024-04-18T11:50:59.953Z,18.88
2024-04-18T11:53:30.519Z,19.41
2024-04-18T11:56:04.250Z,19.76
2024-04-18T11:58:38.026Z,20.04
2024-04-18T12:01:09.657Z,21.42
2024-04-18T12:03:43.752Z,22.43
2024-04-18T12:06:28.557Z,22.68
2024-04-18T12:08:59.123Z,22.17
2024-04-18T12:11:33.748Z,21.43
2024-04-18T12:14:20.625Z,22.08
2024-04-18T12:17:00.566Z,22.29
2024-04-18T12:19:46.217Z,22.24
2024-04-18T12:22:30.826Z,24.05
2024-04-18T12:25:15.535Z,20.82
2024-04-18T12:27:45.934Z,21.72
2024-04-18T12:30:33.197Z,21.46
2024-04-18T12:33:17.692Z,24.19
2024-04-18T12:35:49.177Z,19.71
2024-04-18T12:38:19.790Z,18.70
2024-04-18T12:40:50.455Z,19.07
2024-04-18T12:43:21.400Z,18.93
2024-04-18T12:46:10.933Z,18.90
2024-04-18T12:48:55.766Z,20.03
2024-04-18T12:51:26.432Z,21.97
2024-04-18T12:53:57.631Z,23.62
2024-04-18T12:56:42.513Z,20.67
2024-04-18T12:59:26.084Z,19.23
2024-04-18T13:01:56.756Z,18.95
2024-04-18T13:04:27.430Z,18.72
2024-04-18T13:06:58.608Z,20.87
2024-04-18T13:09:32.399Z,23.19
2024-04-18T13:12:03.185Z,20.32
2024-04-18T13:14:53.966Z,21.59
2024-04-18T13:17:27.394Z,19.31
2024-04-18T13:20:03.080Z,19.50
2024-04-18T13:22:33.587Z,21.36
2024-04-18T13:25:04.013Z,19.98
2024-04-18T13:27:34.686Z,20.41
2024-04-18T13:30:08.053Z,20.06
2024-04-18T13:32:39.607Z,21.15
2024-04-18T13:35:11.028Z,23.33
2024-04-18T13:37:41.626Z,22.74
2024-04-18T13:40:22.070Z,20.26
2024-04-18T13:43:01.393Z,21.11
2024-04-18T13:45:34.087Z,19.70
2024-04-18T13:48:08.391Z,20.52
2024-04-18T13:50:48.695Z,22.07
2024-04-18T13:53:19.141Z,23.39
2024-04-18T13:55:50.971Z,18.43
2024-04-18T13:58:24.085Z,16.51
2024-04-18T14:01:02.947Z,16.31
2024-04-18T14:03:36.522Z,16.25
2024-04-18T14:06:09.581Z,16.32
2024-04-18T14:08:40.682Z,17.81
2024-04-18T14:11:25.188Z,17.42
2024-04-18T14:14:11.603Z,18.53
2024-04-18T14:17:07.143Z,21.41
2024-04-18T14:19:40.239Z,22.04
2024-04-18T14:22:10.736Z,23.57
2024-04-18T14:24:41.595Z,19.13
2024-04-18T14:27:20.531Z,18.31
2024-04-18T14:30:05.276Z,19.60
2024-04-18T14:32:39.540Z,20.89
2024-04-18T14:35:12.804Z,21.10
2024-04-18T14:37:43.441Z,22.72
2024-04-18T14:40:14.291Z,22.19
2024-04-18T14:42:44.715Z,22.77
2024-04-18T14:45:15.949Z,23.15
2024-04-18T14:47:46.477Z,23.31
2024-04-18T14:50:19.525Z,22.52
2024-04-18T14:52:49.945Z,22.53
2024-04-18T14:55:34.494Z,22.79
2024-04-18T14:58:18.803Z,23.24
2024-04-18T15:00:54.810Z,23.05
2024-04-18T15:03:25.657Z,22.99
2024-04-18T15:06:18.699Z,22.57
2024-04-18T15:09:03.936Z,22.44
2024-04-18T15:11:34.774Z,22.14
2024-04-18T15:14:04.500Z,21.83
2024-04-18T15:16:35.024Z,21.82
2024-04-18T15:19:05.552Z,21.15
2024-04-18T15:21:52.859Z,20.56
2024-04-18T15:24:24.059Z,20.03
2024-04-18T15:27:05.174Z,19.42
2024-04-18T15:29:35.658Z,19.00
2024-04-18T15:32:21.383Z,18.36
2024-04-18T15:34:52.719Z,17.86
2024-04-18T15:37:39.683Z,17.20
2024-04-18T15:40:14.457Z,16.56
2024-04-18T15:43:06.166Z,15.55
2024-04-18T15:45:41.751Z,14.80
2024-04-18T15:48:26.346Z,14.17
2024-04-18T15:50:54.446Z,13.61
2024-04-18T15:53:37.127Z,13.23
2024-04-18T15:56:11.320Z,12.97
2024-04-18T15:58:56.151Z,12.71
2024-04-18T16:01:27.209Z,12.06
2024-04-18T16:04:11.677Z,11.52
2024-04-18T16:06:56.053Z,11.12
2024-04-18T16:09:43.383Z,10.83
2024-04-18T16:12:27.099Z,10.59
2024-04-18T16:15:05.093Z,10.25
2024-04-18T16:17:36.323Z,9.99
2024-04-18T16:20:15.800Z,9.77
2024-04-18T16:22:46.184Z,9.56
2024-04-18T16:25:36.070Z,9.33
2024-04-18T16:28:06.890Z,9.19
2024-04-18T16:30:48.971Z,9.19
2024-04-18T16:33:19.860Z,9.02
2024-04-18T16:35:50.341Z,8.81
2024-04-18T16:38:20.793Z,8.80
2024-04-18T16:40:56.734Z,8.63
2024-04-18T16:43:38.520Z,8.69
2024-04-18T16:46:09.709Z,8.39
2024-04-18T16:48:40.588Z,8.36
2024-04-18T16:51:11.141Z,8.21
2024-04-18T16:53:56.691Z,8.06
2024-04-18T16:56:40.515Z,7.97
2024-04-18T16:59:11.418Z,7.88
2024-04-18T17:01:41.934Z,7.79
2024-04-18T17:04:12.458Z,7.65
2024-04-18T17:06:48.086Z,7.57
2024-04-18T17:09:20.156Z,7.46
2024-04-18T17:11:53.275Z,7.33
2024-04-18T17:14:37.596Z,7.23
2024-04-18T17:17:08.325Z,7.19
2024-04-18T17:19:57.504Z,7.12
2024-04-18T17:22:25.457Z,7.03
2024-04-18T17:24:55.990Z,6.94
2024-04-18T17:27:29.029Z,6.85
2024-04-18T17:29:59.515Z,6.81
2024-04-18T17:32:29.898Z,6.69
2024-04-18T17:35:01.009Z,6.60
2024-04-18T17:37:45.461Z,6.53
2024-04-18T17:40:24.634Z,6.43
2024-04-18T17:43:07.154Z,6.32
2024-04-18T17:45:37.820Z,6.25
2024-04-18T17:48:18.513Z,6.19
2024-04-18T17:50:49.181Z,6.13
2024-04-18T17:53:19.588Z,6.03
2024-04-18T17:55:51.206Z,5.91
2024-04-18T17:58:24.466Z,5.88
2024-04-18T18:00:54.879Z,5.69
2024-04-18T18:03:37.339Z,5.70
2024-04-18T18:06:09.134Z,5.60
2024-04-18T18:08:39.593Z,5.54
2024-04-18T18:11:23.267Z,5.41
2024-04-18T18:13:58.599Z,5.34
2024-04-18T18:16:30.787Z,5.18
2024-04-18T18:19:01.548Z,5.14
2024-04-18T18:21:32.077Z,5.07
2024-04-18T18:24:02.493Z,5.05
2024-04-18T18:26:36.401Z,4.95
2024-04-18T18:29:09.545Z,4.80
2024-04-18T18:31:51.231Z,4.83
2024-04-18T18:34:21.677Z,4.78
2024-04-18T18:36:49.579Z,4.67
2024-04-18T18:39:20.075Z,4.57
2024-04-18T18:41:47.944Z,4.49
2024-04-18T18:44:21.169Z,4.41
2024-04-18T18:46:49.015Z,4.40
2024-04-18T18:49:19.946Z,4.39
2024-04-18T18:51:50.623Z,4.34
2024-04-18T18:54:18.786Z,4.26
2024-04-18T18:56:49.210Z,4.25
2024-04-18T18:59:33.529Z,4.18
2024-04-18T19:02:04.049Z,4.16
2024-04-18T19:04:54.489Z,3.99
2024-04-18T19:07:22.358Z,3.87
2024-04-18T19:09:52.839Z,3.81
2024-04-18T19:12:20.973Z,3.78
2024-04-18T19:14:55.303Z,3.67
2024-04-18T19:17:23.178Z,3.64
2024-04-18T19:19:54.192Z,3.57
2024-04-18T19:22:22.095Z,3.49
2024-04-18T19:24:52.592Z,3.48
2024-04-18T19:27:20.521Z,3.41
2024-04-18T19:29:53.682Z,3.40
2024-04-18T19:32:21.659Z,3.39
2024-04-18T19:34:52.281Z,3.36
2024-04-18T19:37:20.123Z,3.29
2024-04-18T19:39:50.918Z,3.26
2024-04-18T19:42:18.782Z,3.24
2024-04-18T19:44:49.123Z,3.21
2024-04-18T19:47:19.590Z,3.18
2024-04-18T19:49:50.048Z,3.17
2024-04-18T19:52:17.863Z,3.05
2024-04-18T19:54:48.462Z,3.01
2024-04-18T19:57:16.413Z,2.98
2024-04-18T19:59:46.826Z,2.98
2024-04-18T20:02:14.699Z,2.84
2024-04-18T20:04:47.732Z,2.85
2024-04-18T20:07:15.739Z,2.77
2024-04-18T20:09:46.145Z,2.78
2024-04-18T20:12:14.055Z,2.73
2024-04-18T20:15:04.320Z,2.70
2024-04-18T20:17:32.258Z,2.69
2024-04-18T20:20:05.367Z,2.67
2024-04-18T20:22:33.166Z,2.66
2024-04-18T20:25:03.548Z,2.64
2024-04-18T20:27:40.970Z,2.60
2024-04-18T20:30:11.911Z,2.53
2024-04-18T20:32:59.768Z,2.56
2024-04-18T20:35:33.392Z,2.52
2024-04-18T20:38:01.304Z,2.38
2024-04-18T20:40:31.832Z,2.47
2024-04-18T20:42:59.745Z,2.42
2024-04-18T20:45:31.530Z,2.33
2024-04-18T20:47:59.841Z,2.37
2024-04-18T20:50:33.641Z,2.29
2024-04-18T20:53:01.497Z,2.21
2024-04-18T20:55:32.049Z,2.14
2024-04-18T20:57:59.860Z,2.10
2024-04-18T21:00:30.477Z,2.10
2024-04-18T21:03:00.596Z,2.15
2024-04-18T21:05:33.705Z,2.02
2024-04-18T21:08:01.610Z,2.06
2024-04-18T21:10:31.965Z,2.02
2024-04-18T21:13:02.099Z,2.00
2024-04-18T21:15:34.032Z,1.98
2024-04-18T21:18:01.995Z,1.99
2024-04-18T21:20:34.981Z,1.96
2024-04-18T21:23:02.897Z,1.96
2024-04-18T21:25:33.336Z,1.90
2024-04-18T21:28:01.212Z,1.90
2024-04-18T21:30:31.649Z,1.83
2024-04-18T21:32:59.540Z,1.84
2024-04-18T21:35:38.831Z,1.73
2024-04-18T21:38:06.686Z,1.80
2024-04-18T21:40:37.019Z,1.81
2024-04-18T21:43:05.162Z,1.79
2024-04-18T21:45:35.685Z,1.81
2024-04-18T21:48:03.842Z,1.78
2024-04-18T21:50:35.772Z,1.68
2024-04-18T21:53:06.283Z,1.70
2024-04-18T21:55:36.896Z,1.70
2024-04-18T21:58:05.120Z,1.70
2024-04-18T22:00:35.538Z,1.66
2024-04-18T22:03:03.451Z,1.63
2024-04-18T22:05:34.031Z,1.60
2024-04-18T22:08:02.377Z,1.61
2024-04-18T22:10:35.363Z,1.61
2024-04-18T22:13:03.302Z,1.61
2024-04-18T22:15:33.714Z,1.63
2024-04-18T22:18:02.130Z,1.62
2024-04-18T22:20:32.552Z,1.70
2024-04-18T22:23:13.349Z,1.63
2024-04-18T22:25:46.639Z,1.61
2024-04-18T22:28:14.381Z,1.52
2024-04-18T22:30:44.824Z,1.54
2024-04-18T22:33:12.860Z,1.45
2024-04-18T22:35:43.071Z,1.44
2024-04-18T22:38:13.564Z,1.43
2024-04-18T22:40:44.645Z,1.37
2024-04-18T22:43:14.946Z,1.37
2024-04-18T22:45:43.279Z,1.35
2024-04-18T22:48:13.686Z,1.32
2024-04-18T22:50:43.945Z,1.25
2024-04-18T22:53:14.248Z,1.26
2024-04-18T22:55:44.842Z,1.30
2024-04-18T22:58:14.979Z,1.25
2024-04-18T23:01:05.465Z,1.29
2024-04-18T23:03:33.616Z,1.26
2024-04-18T23:06:17.412Z,1.30
2024-04-18T23:08:45.117Z,1.23
2024-04-18T23:11:19.229Z,1.16
2024-04-18T23:13:47.033Z,1.18
2024-04-18T23:16:17.224Z,1.21
2024-04-18T23:18:45.297Z,1.18
2024-04-18T23:21:15.669Z,1.21
2024-04-18T23:23:43.301Z,1.14
2024-04-18T23:26:13.647Z,1.10
2024-04-18T23:28:44.023Z,1.09
2024-04-18T23:31:14.313Z,1.11
2024-04-18T23:33:42.122Z,1.16
2024-04-18T23:36:12.347Z,1.28
2024-04-18T23:38:40.061Z,1.48
2024-04-18T23:41:10.361Z,1.67
2024-04-18T23:43:38.424Z,1.69
2024-04-18T23:46:11.229Z,1.78
2024-04-18T23:48:39.064Z,1.78
2024-04-18T23:51:09.497Z,1.81
2024-04-18T23:53:37.251Z,1.85
2024-04-18T23:56:08.167Z,1.84
2024-04-18T23:58:35.989Z,1.89
